createdAt,value
2017-08-28T00:01:17.123Z,6.07
2017-08-28T00:03:45.381Z,7.20
2017-08-28T00:06:13.625Z,7.40
2017-08-28T00:08:41.885Z,6.87
2017-08-28T00:11:10.126Z,5.73
2017-08-28T00:13:38.384Z,6.47
2017-08-28T00:16:06.627Z,6.67
2017-08-28T00:18:34.884Z,6.37
2017-08-28T00:21:03.124Z,6.50
2017-08-28T00:23:31.390Z,6.23
2017-08-28T00:25:59.636Z,6.70
2017-08-28T00:28:27.892Z,6.10
2017-08-28T00:30:56.919Z,5.70
2017-08-28T00:33:25.174Z,6.30
2017-08-28T00:35:54.277Z,6.60
2017-08-28T00:38:22.553Z,5.73
2017-08-28T00:40:50.808Z,6.30
2017-08-28T00:43:19.067Z,5.80
2017-08-28T00:45:47.305Z,5.63
2017-08-28T00:48:16.544Z,5.93
2017-08-28T00:50:44.787Z,6.00
2017-08-28T00:53:13.823Z,5.70
2017-08-28T00:55:42.054Z,6.30
2017-08-28T00:58:10.369Z,6.30
2017-08-28T01:00:38.621Z,6.67
2017-08-28T01:03:06.908Z,6.27
2017-08-28T01:05:35.154Z,7.10
2017-08-28T01:08:03.403Z,5.67
2017-08-28T01:10:31.660Z,6.43
2017-08-28T01:12:59.910Z,6.53
2017-08-28T01:15:28.168Z,6.23
2017-08-28T01:17:56.413Z,6.40
2017-08-28T01:20:24.664Z,7.00
2017-08-28T01:22:53.676Z,5.90
2017-08-28T01:25:22.723Z,6.60
2017-08-28T01:27:50.966Z,6.20
2017-08-28T01:30:19.228Z,7.23
2017-08-28T01:32:48.246Z,6.70
2017-08-28T01:35:16.507Z,6.70
2017-08-28T01:37:44.767Z,6.63
2017-08-28T01:40:13.032Z,6.50
2017-08-28T01:42:41.394Z,7.03
2017-08-28T01:45:09.682Z,6.50
2017-08-28T01:47:37.915Z,6.50
2017-08-28T01:50:06.174Z,7.43
2017-08-28T01:52:34.411Z,6.97
2017-08-28T01:55:02.671Z,5.97
2017-08-28T01:57:30.911Z,6.13
2017-08-28T01:59:59.241Z,6.80
2017-08-28T02:02:27.477Z,6.50
2017-08-28T02:04:55.728Z,6.43
2017-08-28T02:07:23.998Z,6.23
2017-08-28T02:09:52.258Z,5.70
2017-08-28T02:12:20.512Z,5.57
2017-08-28T02:14:48.770Z,6.40
2017-08-28T02:17:17.035Z,5.93
2017-08-28T02:19:45.278Z,6.30
2017-08-28T02:22:13.544Z,6.50
2017-08-28T02:24:42.541Z,6.90
2017-08-28T02:27:11.595Z,8.03
2017-08-28T02:29:39.816Z,6.73
2017-08-28T02:32:08.849Z,6.77
2017-08-28T02:34:37.083Z,6.97
2017-08-28T02:37:05.333Z,6.83
2017-08-28T02:39:33.579Z,7.40
2017-08-28T02:42:01.833Z,6.70
2017-08-28T02:44:30.103Z,6.70
2017-08-28T02:46:58.364Z,7.97
2017-08-28T02:49:26.663Z,7.07
2017-08-28T02:51:54.929Z,6.93
2017-08-28T02:54:23.163Z,6.40
2017-08-28T02:56:51.426Z,7.20
2017-08-28T02:59:20.422Z,6.73
2017-08-28T03:01:48.698Z,7.27
2017-08-28T03:04:16.948Z,6.67
2017-08-28T03:06:45.224Z,7.50
2017-08-28T03:09:13.476Z,6.87
2017-08-28T03:11:41.734Z,7.87
2017-08-28T03:14:10.761Z,7.87
2017-08-28T03:16:39.015Z,7.20
2017-08-28T03:19:07.274Z,7.80
2017-08-28T03:21:36.691Z,7.30
2017-08-28T03:24:04.971Z,7.07
2017-08-28T03:26:33.227Z,7.20
2017-08-28T03:29:01.474Z,7.63
2017-08-28T03:31:29.762Z,7.33
2017-08-28T03:33:58.026Z,8.30
2017-08-28T03:36:26.258Z,7.10
2017-08-28T03:38:54.515Z,7.77
2017-08-28T03:41:22.755Z,8.50
2017-08-28T03:43:51.079Z,8.13
2017-08-28T03:46:19.324Z,7.43
2017-08-28T03:48:47.576Z,8.00
2017-08-28T03:51:15.821Z,7.80
2017-08-28T03:53:44.088Z,7.97
2017-08-28T03:56:12.351Z,7.77
2017-08-28T03:58:40.606Z,8.23
2017-08-28T04:01:08.851Z,7.67
2017-08-28T04:03:37.228Z,8.00
2017-08-28T04:06:05.452Z,7.77
2017-08-28T04:08:33.798Z,8.00
2017-08-28T04:11:02.014Z,6.77
2017-08-28T04:13:30.288Z,8.27
2017-08-28T04:15:59.296Z,7.80
2017-08-28T04:18:28.523Z,7.87
2017-08-28T04:20:56.769Z,7.00
2017-08-28T04:23:25.077Z,8.27
2017-08-28T04:25:53.323Z,7.37
2017-08-28T04:28:21.571Z,7.10
2017-08-28T04:30:49.810Z,7.00
2017-08-28T04:33:18.090Z,7.87
2017-08-28T04:35:46.335Z,6.70
2017-08-28T04:38:14.619Z,7.30
2017-08-28T04:40:42.865Z,7.17
2017-08-28T04:43:11.113Z,7.20
2017-08-28T04:45:39.388Z,6.90
2017-08-28T04:48:07.633Z,6.70
2017-08-28T04:50:36.018Z,7.43
2017-08-28T04:53:04.243Z,6.40
2017-08-28T04:55:32.490Z,6.73
2017-08-28T04:58:01.518Z,6.80
2017-08-28T05:00:30.535Z,7.20
2017-08-28T05:02:58.794Z,7.50
2017-08-28T05:05:27.054Z,8.00
2017-08-28T05:07:56.070Z,7.00
2017-08-28T05:10:24.363Z,7.67
2017-08-28T05:12:52.605Z,8.40
2017-08-28T05:15:21.647Z,8.17
2017-08-28T05:17:49.902Z,6.90
2017-08-28T05:20:18.194Z,7.63
2017-08-28T05:22:46.430Z,7.33
2017-08-28T05:25:14.695Z,6.50
2017-08-28T05:27:42.944Z,7.73
2017-08-28T05:30:11.652Z,6.80
2017-08-28T05:32:41.054Z,6.50
2017-08-28T05:35:09.336Z,6.40
2017-08-28T05:37:37.589Z,6.70
2017-08-28T05:40:06.604Z,6.37
2017-08-28T05:42:34.857Z,6.80
2017-08-28T05:45:03.114Z,7.03
2017-08-28T05:47:31.432Z,6.20
2017-08-28T05:49:59.974Z,6.73
2017-08-28T05:52:28.195Z,6.63
2017-08-28T05:54:56.439Z,7.03
2017-08-28T05:57:24.710Z,6.60
2017-08-28T05:59:52.967Z,7.20
2017-08-28T06:02:21.252Z,6.93
2017-08-28T06:04:49.483Z,6.67
2017-08-28T06:07:17.752Z,7.00
2017-08-28T06:09:46.772Z,6.67
2017-08-28T06:12:15.032Z,6.83
2017-08-28T06:14:43.270Z,6.80
2017-08-28T06:17:11.539Z,6.73
2017-08-28T06:19:39.780Z,7.20
2017-08-28T06:22:08.837Z,6.43
2017-08-28T06:24:37.091Z,6.20
2017-08-28T06:27:05.350Z,6.90
2017-08-28T06:29:33.600Z,6.73
2017-08-28T06:32:01.850Z,5.30
2017-08-28T06:34:30.103Z,5.93
2017-08-28T06:36:58.414Z,6.40
2017-08-28T06:39:26.655Z,6.63
2017-08-28T06:41:55.719Z,5.80
2017-08-28T06:44:24.708Z,5.90
2017-08-28T06:46:52.982Z,5.63
2017-08-28T06:49:21.264Z,5.90
2017-08-28T06:51:49.575Z,5.77
2017-08-28T06:54:17.839Z,6.00
2017-08-28T06:56:46.495Z,5.47
2017-08-28T06:59:14.738Z,5.33
2017-08-28T07:01:43.010Z,4.83
2017-08-28T07:04:11.262Z,6.30
2017-08-28T07:06:39.511Z,5.57
2017-08-28T07:09:07.775Z,6.23
2017-08-28T07:11:36.024Z,5.73
2017-08-28T07:14:04.550Z,5.90
2017-08-28T07:16:32.813Z,6.33
2017-08-28T07:19:01.074Z,5.73
2017-08-28T07:21:29.318Z,5.00
2017-08-28T07:23:57.589Z,4.93
2017-08-28T07:26:25.849Z,5.93
2017-08-28T07:28:54.146Z,4.83
2017-08-28T07:31:22.378Z,5.40
2017-08-28T07:33:50.737Z,5.70
2017-08-28T07:36:18.980Z,4.70
2017-08-28T07:38:47.246Z,5.10
2017-08-28T07:41:15.502Z,5.37
2017-08-28T07:43:43.761Z,5.07
2017-08-28T07:46:12.001Z,6.00
2017-08-28T07:48:40.277Z,5.37
2017-08-28T07:51:08.516Z,5.20
2017-08-28T07:53:36.823Z,5.03
2017-08-28T07:56:05.029Z,4.87
2017-08-28T07:58:33.284Z,4.73
2017-08-28T08:01:02.310Z,5.03
2017-08-28T08:03:31.410Z,5.50
2017-08-28T08:05:59.739Z,4.97
2017-08-28T08:08:28.006Z,5.20
2017-08-28T08:10:56.285Z,4.73
2017-08-28T08:13:24.559Z,5.50
2017-08-28T08:15:52.959Z,4.90
2017-08-28T08:18:21.864Z,4.60
2017-08-28T08:20:51.826Z,5.03
2017-08-28T08:23:20.773Z,5.60
2017-08-28T08:25:49.374Z,6.10
2017-08-28T08:28:17.773Z,5.40
2017-08-28T08:30:46.228Z,5.60
2017-08-28T08:33:14.683Z,5.97
2017-08-28T08:35:43.795Z,4.87
2017-08-28T08:38:12.098Z,6.23
2017-08-28T08:40:40.472Z,4.70
2017-08-28T08:43:09.589Z,5.50
2017-08-28T08:45:37.930Z,5.90
2017-08-28T08:48:06.558Z,5.53
2017-08-28T08:50:34.796Z,5.80
2017-08-28T08:53:03.041Z,4.60
2017-08-28T08:55:31.300Z,5.00
2017-08-28T08:58:00.150Z,6.37
2017-08-28T09:00:28.989Z,5.50
2017-08-28T09:02:57.785Z,6.20
2017-08-28T09:05:26.131Z,5.50
2017-08-28T09:07:54.371Z,5.63
2017-08-28T09:10:22.653Z,4.80
2017-08-28T09:12:51.656Z,5.60
2017-08-28T09:15:20.680Z,5.87
2017-08-28T09:17:48.946Z,5.17
2017-08-28T09:20:17.197Z,5.83
2017-08-28T09:22:45.454Z,5.43
2017-08-28T09:25:13.689Z,5.50
2017-08-28T09:27:41.947Z,5.73
2017-08-28T09:30:10.182Z,5.30
2017-08-28T09:32:38.440Z,5.10
2017-08-28T09:35:06.685Z,4.60
2017-08-28T09:37:35.725Z,5.60
2017-08-28T09:40:03.967Z,5.73
2017-08-28T09:42:32.987Z,6.00
2017-08-28T09:45:01.246Z,5.60
2017-08-28T09:47:29.498Z,6.43
2017-08-28T09:49:57.742Z,6.00
2017-08-28T09:52:26.031Z,6.47
2017-08-28T09:54:54.270Z,6.00
2017-08-28T09:57:23.300Z,6.10
2017-08-28T09:59:51.553Z,7.07
2017-08-28T10:02:20.581Z,5.87
2017-08-28T10:04:48.822Z,6.03
2017-08-28T10:07:17.088Z,7.37
2017-08-28T10:09:46.247Z,7.20
2017-08-28T10:12:14.516Z,6.77
2017-08-28T10:14:42.783Z,6.17
2017-08-28T10:17:11.799Z,6.30
2017-08-28T10:19:40.062Z,7.00
2017-08-28T10:22:09.088Z,6.73
2017-08-28T10:24:37.347Z,7.07
2017-08-28T10:27:08.969Z,6.87
2017-08-28T10:29:37.248Z,6.30
2017-08-28T10:32:05.511Z,6.10
2017-08-28T10:34:33.768Z,7.03
2017-08-28T10:37:02.015Z,6.50
2017-08-28T10:39:30.283Z,6.60
2017-08-28T10:41:58.529Z,6.97
2017-08-28T10:44:26.804Z,5.93
2017-08-28T10:46:55.049Z,6.63
2017-08-28T10:49:23.302Z,6.60
2017-08-28T10:51:51.543Z,6.37
2017-08-28T10:54:20.096Z,6.37
2017-08-28T10:56:48.349Z,6.50
2017-08-28T10:59:16.590Z,8.30
2017-08-28T11:01:44.830Z,7.57
2017-08-28T11:04:13.102Z,7.60
2017-08-28T11:06:41.347Z,7.77
2017-08-28T11:09:09.610Z,8.50
2017-08-28T11:11:37.863Z,9.27
2017-08-28T11:14:06.133Z,9.77
2017-08-28T11:16:34.408Z,9.60
2017-08-28T11:19:02.665Z,9.33
2017-08-28T11:21:30.944Z,10.07
2017-08-28T11:23:59.219Z,9.30
2017-08-28T11:26:27.466Z,8.33
2017-08-28T11:28:55.710Z,8.50
2017-08-28T11:31:23.980Z,11.27
2017-08-28T11:33:52.234Z,9.83
2017-08-28T11:36:20.494Z,11.20
2017-08-28T11:38:48.747Z,8.30
2017-08-28T11:41:17.013Z,10.23
2017-08-28T11:43:45.279Z,11.37
2017-08-28T11:46:14.312Z,13.50
2017-08-28T11:48:42.570Z,11.23
2017-08-28T11:51:10.839Z,12.53
2017-08-28T11:53:39.095Z,12.20
2017-08-28T11:56:07.369Z,12.80
2017-08-28T11:58:35.632Z,12.70
2017-08-28T12:01:03.903Z,11.33
2017-08-28T12:03:32.150Z,9.40
2017-08-28T12:06:00.411Z,9.37
2017-08-28T12:08:28.651Z,9.10
2017-08-28T12:10:56.911Z,7.90
2017-08-28T12:13:25.162Z,11.00
2017-08-28T12:15:54.237Z,12.33
2017-08-28T12:18:22.484Z,13.07
2017-08-28T12:20:50.767Z,12.37
2017-08-28T12:23:19.023Z,9.30
2017-08-28T12:25:47.282Z,9.70
2017-08-28T12:28:16.310Z,11.30
2017-08-28T12:30:44.623Z,8.53
2017-08-28T12:33:12.891Z,9.83
2017-08-28T12:35:41.158Z,9.50
2017-08-28T12:38:09.431Z,9.77
2017-08-28T12:40:37.694Z,9.00
2017-08-28T12:43:05.975Z,9.47
2017-08-28T12:45:34.224Z,11.03
2017-08-28T12:48:02.490Z,8.80
2017-08-28T12:50:30.731Z,7.63
2017-08-28T12:52:58.990Z,8.60
2017-08-28T12:55:28.001Z,8.47
2017-08-28T12:57:56.268Z,10.00
2017-08-28T13:00:25.285Z,8.70
2017-08-28T13:02:53.552Z,8.70
2017-08-28T13:05:21.797Z,8.20
2017-08-28T13:07:50.047Z,9.40
2017-08-28T13:10:18.291Z,7.70
2017-08-28T13:12:48.724Z,8.80
2017-08-28T13:15:16.950Z,8.60
2017-08-28T13:17:45.259Z,7.60
2017-08-28T13:20:13.547Z,7.77
2017-08-28T13:22:41.838Z,7.50
2017-08-28T13:25:10.087Z,8.20
2017-08-28T13:27:38.346Z,8.37
2017-08-28T13:30:06.594Z,7.73
2017-08-28T13:32:34.867Z,7.90
2017-08-28T13:35:03.112Z,7.63
2017-08-28T13:37:31.378Z,8.27
2017-08-28T13:39:59.631Z,9.43
2017-08-28T13:42:28.673Z,7.83
2017-08-28T13:44:56.930Z,8.10
2017-08-28T13:47:25.181Z,7.70
2017-08-28T13:49:55.483Z,8.60
2017-08-28T13:52:23.765Z,8.30
2017-08-28T13:54:52.057Z,9.63
2017-08-28T13:57:21.070Z,7.57
2017-08-28T13:59:49.339Z,9.10
2017-08-28T14:02:18.360Z,8.10
2017-08-28T14:04:46.636Z,8.30
2017-08-28T14:07:14.886Z,8.23
2017-08-28T14:09:43.167Z,7.90
2017-08-28T14:12:11.414Z,9.10
2017-08-28T14:14:39.671Z,8.90
2017-08-28T14:17:07.922Z,8.17
2017-08-28T14:19:36.206Z,9.70
2017-08-28T14:22:04.467Z,8.30
2017-08-28T14:24:32.730Z,7.93
2017-08-28T14:27:00.987Z,8.00
2017-08-28T14:29:29.229Z,8.50
2017-08-28T14:31:57.507Z,8.17
2017-08-28T14:34:26.546Z,9.03
2017-08-28T14:36:54.799Z,8.90
2017-08-28T14:39:23.060Z,8.97
2017-08-28T14:41:51.307Z,8.20
2017-08-28T14:44:19.627Z,8.20
2017-08-28T14:46:47.883Z,9.07
2017-08-28T14:49:16.158Z,8.83
2017-08-28T14:51:44.439Z,7.93
2017-08-28T14:54:12.702Z,9.00
2017-08-28T14:56:40.965Z,8.40
2017-08-28T14:59:09.216Z,8.80
2017-08-28T15:01:38.252Z,8.43
2017-08-28T15:04:06.539Z,7.67
2017-08-28T15:06:34.798Z,8.47
2017-08-28T15:09:03.051Z,8.87
2017-08-28T15:11:31.327Z,9.20
2017-08-28T15:13:59.596Z,9.63
2017-08-28T15:16:27.858Z,7.70
2017-08-28T15:18:56.102Z,8.20
2017-08-28T15:21:24.358Z,8.87
2017-08-28T15:23:52.648Z,8.87
2017-08-28T15:26:20.908Z,8.27
2017-08-28T15:28:50.700Z,8.60
2017-08-28T15:31:19.793Z,8.40
2017-08-28T15:33:48.137Z,8.53
2017-08-28T15:36:16.477Z,7.67
2017-08-28T15:38:45.961Z,7.40
2017-08-28T15:41:15.031Z,7.87
2017-08-28T15:43:43.291Z,8.27
2017-08-28T15:46:11.560Z,8.03
2017-08-28T15:48:39.809Z,7.97
2017-08-28T15:51:08.068Z,7.73
2017-08-28T15:53:36.323Z,7.27
2017-08-28T15:56:04.578Z,7.50
2017-08-28T15:58:32.855Z,9.07
2017-08-28T16:01:01.125Z,6.87
2017-08-28T16:03:29.398Z,7.80
2017-08-28T16:05:58.202Z,6.83
2017-08-28T16:08:26.496Z,7.80
2017-08-28T16:10:55.341Z,8.33
2017-08-28T16:13:23.606Z,7.67
2017-08-28T16:15:51.867Z,8.33
2017-08-28T16:18:20.163Z,7.97
2017-08-28T16:20:48.414Z,7.80
2017-08-28T16:23:16.701Z,10.67
2017-08-28T16:25:45.552Z,8.37
2017-08-28T16:28:13.811Z,8.83
2017-08-28T16:30:42.090Z,7.47
2017-08-28T16:33:10.335Z,7.60
2017-08-28T16:35:38.574Z,8.57
2017-08-28T16:38:06.848Z,8.00
2017-08-28T16:40:35.123Z,7.43
2017-08-28T16:43:03.383Z,7.40
2017-08-28T16:45:31.675Z,7.47
2017-08-28T16:47:59.948Z,8.00
2017-08-28T16:50:28.195Z,7.60
2017-08-28T16:52:56.489Z,7.53
2017-08-28T16:55:24.762Z,8.20
2017-08-28T16:57:53.017Z,7.60
2017-08-28T17:00:21.246Z,7.73
2017-08-28T17:02:49.507Z,8.00
2017-08-28T17:05:17.755Z,7.00
2017-08-28T17:07:46.025Z,7.40
2017-08-28T17:10:14.304Z,7.40
2017-08-28T17:12:42.567Z,8.53
2017-08-28T17:15:10.813Z,8.43
2017-08-28T17:17:39.095Z,7.53
2017-08-28T17:20:07.343Z,7.97
2017-08-28T17:22:41.377Z,8.40
2017-08-28T17:25:09.625Z,8.20
2017-08-28T17:27:37.882Z,8.20
2017-08-28T17:30:06.146Z,8.13
2017-08-28T17:32:34.402Z,7.57
2017-08-28T17:35:02.672Z,8.80
2017-08-28T17:37:30.944Z,7.90
2017-08-28T17:39:59.208Z,8.30
2017-08-28T17:42:27.458Z,7.87
2017-08-28T17:44:55.714Z,8.90
2017-08-28T17:47:23.968Z,9.17
2017-08-28T17:49:52.239Z,7.80
2017-08-28T17:52:20.497Z,7.23
2017-08-28T17:54:48.759Z,8.33
2017-08-28T17:57:17.849Z,6.90
2017-08-28T17:59:46.138Z,7.47
2017-08-28T18:02:14.427Z,6.90
2017-08-28T18:04:42.684Z,7.20
2017-08-28T18:07:10.926Z,6.20
2017-08-28T18:09:39.979Z,6.47
2017-08-28T18:12:08.214Z,6.57
2017-08-28T18:14:36.492Z,6.10
2017-08-28T18:17:05.505Z,5.83
2017-08-28T18:19:33.762Z,6.23
2017-08-28T18:22:02.002Z,6.60
2017-08-28T18:24:30.279Z,7.40
2017-08-28T18:26:58.539Z,6.97
2017-08-28T18:29:26.843Z,6.33
2017-08-28T18:31:55.083Z,6.67
2017-08-28T18:34:23.398Z,6.43
2017-08-28T18:36:51.640Z,7.13
2017-08-28T18:39:20.202Z,6.40
2017-08-28T18:41:48.868Z,7.53
2017-08-28T18:44:17.128Z,8.10
2017-08-28T18:46:45.386Z,8.07
2017-08-28T18:49:13.633Z,9.20
2017-08-28T18:54:52.526Z,10.50
2017-08-28T18:57:20.778Z,10.23
2017-08-28T18:59:49.016Z,10.20
2017-08-28T19:02:18.040Z,10.30
2017-08-28T19:04:46.288Z,10.13
2017-08-28T19:07:14.578Z,10.13
2017-08-28T19:09:42.830Z,10.97
2017-08-28T19:12:11.114Z,10.93
2017-08-28T19:14:39.366Z,10.27
2017-08-28T19:17:07.614Z,12.10
2017-08-28T19:19:35.845Z,9.87
2017-08-28T19:22:04.100Z,10.60
2017-08-28T19:24:32.354Z,11.10
2017-08-28T19:27:00.614Z,10.40
2017-08-28T19:29:28.856Z,11.30
2017-08-28T19:31:57.121Z,9.07
2017-08-28T19:34:27.414Z,9.83
2017-08-28T19:36:55.823Z,9.90
2017-08-28T19:39:24.068Z,12.57
2017-08-28T19:41:52.325Z,10.20
2017-08-28T19:44:20.558Z,10.40
2017-08-28T19:46:49.580Z,10.40
2017-08-28T19:49:17.813Z,9.87
2017-08-28T19:51:46.059Z,9.60
2017-08-28T19:54:14.300Z,9.57
2017-08-28T19:56:42.556Z,9.83
2017-08-28T19:59:10.809Z,9.93
2017-08-28T20:01:40.980Z,10.50
2017-08-28T20:04:09.261Z,9.70
2017-08-28T20:06:37.536Z,10.53
2017-08-28T20:09:05.777Z,9.20
2017-08-28T20:11:34.782Z,10.50
2017-08-28T20:14:03.037Z,9.30
2017-08-28T20:16:31.280Z,9.50
2017-08-28T20:18:59.537Z,9.07
2017-08-28T20:21:27.768Z,9.20
2017-08-28T20:23:56.781Z,8.53
2017-08-28T20:26:25.009Z,9.20
2017-08-28T20:28:53.266Z,9.50
2017-08-28T20:31:21.508Z,8.90
2017-08-28T20:33:49.756Z,9.47
2017-08-28T20:36:18.756Z,8.90
2017-08-28T20:38:47.008Z,8.27
2017-08-28T20:41:15.235Z,8.80
2017-08-28T20:43:43.481Z,8.90
2017-08-28T20:46:12.476Z,8.33
2017-08-28T20:48:40.724Z,8.00
2017-08-28T20:51:08.956Z,8.07
2017-08-28T20:53:37.977Z,7.67
2017-08-28T20:56:06.968Z,9.33
2017-08-28T20:58:35.217Z,8.20
2017-08-28T21:01:03.468Z,9.10
2017-08-28T21:03:31.717Z,7.83
2017-08-28T21:05:59.957Z,7.90
2017-08-28T21:08:28.200Z,7.90
2017-08-28T21:10:56.540Z,7.13
2017-08-28T21:13:24.757Z,8.30
2017-08-28T21:15:52.992Z,8.60
2017-08-28T21:18:21.248Z,8.10
2017-08-28T21:20:49.480Z,7.60
2017-08-28T21:23:17.704Z,7.90
2017-08-28T21:25:46.803Z,7.47
2017-08-28T21:28:15.867Z,7.20
2017-08-28T21:30:44.136Z,7.60
2017-08-28T21:33:12.374Z,9.50
2017-08-28T21:35:40.620Z,9.60
2017-08-28T21:38:08.874Z,7.73
2017-08-28T21:40:37.124Z,7.17
2017-08-28T21:43:06.048Z,7.90
2017-08-28T21:45:34.356Z,8.30
2017-08-28T21:48:02.565Z,9.90
2017-08-28T21:50:30.808Z,8.37
2017-08-28T21:52:59.066Z,8.83
2017-08-28T21:55:27.296Z,8.30
2017-08-28T21:57:55.531Z,7.93
2017-08-28T22:00:24.537Z,8.80
2017-08-28T22:02:52.764Z,9.00
2017-08-28T22:05:21.017Z,8.17
2017-08-28T22:07:49.240Z,8.33
2017-08-28T22:10:17.498Z,7.40
2017-08-28T22:12:45.733Z,7.67
2017-08-28T22:15:13.980Z,8.30
2017-08-28T22:17:42.212Z,8.90
2017-08-28T22:20:10.473Z,7.70
2017-08-28T22:22:38.715Z,8.40
2017-08-28T22:25:06.972Z,7.67
2017-08-28T22:27:35.221Z,7.00
2017-08-28T22:30:03.451Z,7.90
2017-08-28T22:32:32.452Z,7.57
2017-08-28T22:35:00.692Z,7.23
2017-08-28T22:37:28.933Z,7.90
2017-08-28T22:39:57.173Z,7.90
2017-08-28T22:42:25.408Z,6.90
2017-08-28T22:44:53.633Z,6.60
2017-08-28T22:47:21.898Z,7.27
2017-08-28T22:49:50.124Z,6.93
2017-08-28T22:52:18.369Z,7.23
2017-08-28T22:54:46.632Z,8.27
2017-08-28T22:57:14.872Z,7.60
2017-08-28T22:59:43.946Z,6.80
2017-08-28T23:02:12.192Z,8.33
2017-08-28T23:04:40.432Z,7.10
2017-08-28T23:07:09.440Z,7.83
2017-08-28T23:09:37.672Z,7.63
2017-08-28T23:12:05.936Z,6.97
2017-08-28T23:14:34.171Z,7.23
2017-08-28T23:17:02.426Z,7.40
2017-08-28T23:19:30.658Z,7.63
2017-08-28T23:21:58.911Z,7.73
2017-08-28T23:24:27.145Z,8.20
2017-08-28T23:26:55.441Z,7.43
2017-08-28T23:29:23.670Z,8.07
2017-08-28T23:31:51.909Z,7.80
2017-08-28T23:34:20.140Z,8.27
2017-08-28T23:36:48.372Z,8.67
2017-08-28T23:39:16.619Z,7.67
2017-08-28T23:41:44.852Z,7.37
2017-08-28T23:44:13.126Z,7.23
2017-08-28T23:46:41.344Z,6.90
2017-08-28T23:49:09.600Z,7.07
2017-08-28T23:51:37.840Z,6.03
2017-08-28T23:54:06.140Z,6.43
2017-08-28T23:56:34.341Z,6.50
2017-08-28T23:59:02.585Z,6.87
